»·PEaware :: N21056 KBUR-KSNA

N21056 :: KBUR-KSNA

FLIGHT INFORMATION

Flight Status: Arrived
Operator: Privately registered:
United States
More flights under this callsign
Pilot: Erik K. (18332)
Aircraft: PILATUS PC-12 EAGLE
(PC12)
More flights by this aircraft type
Origin: KBUR Bob Hope-Burbank
United States
Destination: KSNA John Wayne-Orange Co
United States
More flights between these airports :: More routes between these airports
Route: +VNY3 TWINE V518 KIMMO V459 SLI
File this flight plan on PilotEdge
Remarks: TEC ROUTE BURP21
Altitude:
(Current/Filed)
9,000ft
Speed:
(Current/Filed)
250kts
Departed: 20-Nov-18 12:44 PM
Arrived: 20-Nov-18 01:18 PM
Distance/Time
Traveled:
40nm/0:34
Distance/Time
To Go:
Arrived

Flight Plot

Page will automatically refresh every two minutes.

Flight plan parsing failed; only flown route is shown


Map Options




Map Legend


Flown Route
Filed Route
Departure Airport
Arrival Airport
Navaid (VOR, NDB)
Fix

Horizontal Profiles

Position Reports

Time Latitude Longitude Heading Altitude Ground
Speed
20-Nov-18 12:20 34.196338 -118.367565 358 721ft 0kts
20-Nov-18 12:21 34.196338 -118.367565 358 721ft 0kts
20-Nov-18 12:22 34.196338 -118.367565 358 721ft 0kts
20-Nov-18 12:23 34.196338 -118.367565 359 721ft 0kts
20-Nov-18 12:24 34.196338 -118.367565 359 721ft 0kts
20-Nov-18 12:25 34.196338 -118.367565 359 721ft 0kts
20-Nov-18 12:26 34.196338 -118.367565 359 721ft 0kts
20-Nov-18 12:27 34.196338 -118.367565 359 721ft 0kts
20-Nov-18 12:28 34.196338 -118.367565 359 721ft 0kts
20-Nov-18 12:29 34.196338 -118.367565 359 721ft 0kts
20-Nov-18 12:30 34.196338 -118.367565 359 721ft 0kts
20-Nov-18 12:31 34.196338 -118.367565 359 721ft 0kts
20-Nov-18 12:32 34.196338 -118.367565 359 721ft 0kts
20-Nov-18 12:33 34.196916 -118.368340 271 723ft 11kts
20-Nov-18 12:34 34.196907 -118.368827 308 723ft 0kts
20-Nov-18 12:35 34.196907 -118.368827 308 723ft 0kts
20-Nov-18 12:36 34.196907 -118.368827 308 723ft 0kts
20-Nov-18 12:37 34.196907 -118.368827 308 723ft 0kts
20-Nov-18 12:38 34.196907 -118.368827 308 723ft 0kts
20-Nov-18 12:39 34.196907 -118.368827 308 723ft 0kts
20-Nov-18 12:40 34.196907 -118.368827 308 723ft 0kts
20-Nov-18 12:41 34.196907 -118.368827 308 723ft 0kts
20-Nov-18 12:42 34.196907 -118.368827 308 723ft 0kts
20-Nov-18 12:43 34.196907 -118.368827 308 723ft 0kts
20-Nov-18 12:44 34.196907 -118.368827 308 723ft 0kts
20-Nov-18 12:45 34.196907 -118.368827 308 723ft 0kts
20-Nov-18 12:46 34.197910 -118.367680 86 725ft 23kts
20-Nov-18 12:47 34.190020 -118.336937 148 2263ft 128kts
20-Nov-18 12:48 34.162094 -118.348510 238 4867ft 130kts
20-Nov-18 12:49 34.141674 -118.383747 232 7309ft 140kts
20-Nov-18 12:50 34.155067 -118.418278 351 9011ft 199kts
20-Nov-18 12:51 34.217452 -118.431136 354 8990ft 259kts
20-Nov-18 12:52 34.288139 -118.444854 358 8993ft 265kts
20-Nov-18 12:53 34.295496 -118.388485 143 9014ft 253kts
20-Nov-18 12:54 34.246982 -118.330024 143 8992ft 251kts
20-Nov-18 12:55 34.190736 -118.287788 150 8987ft 251kts
20-Nov-18 12:56 34.133185 -118.251640 152 8988ft 251kts
20-Nov-18 12:57 34.074966 -118.216638 152 8989ft 252kts
20-Nov-18 12:58 34.016703 -118.182005 152 8988ft 254kts
20-Nov-18 12:59 33.957882 -118.147139 152 8987ft 256kts
20-Nov-18 13:00 33.891575 -118.157624 194 7439ft 258kts
20-Nov-18 13:01 33.831133 -118.176519 193 6964ft 212kts
20-Nov-18 13:02 33.775461 -118.186587 151 6618ft 213kts
20-Nov-18 13:03 33.726101 -118.146217 144 5823ft 224kts
20-Nov-18 13:04 33.690611 -118.090956 86 4972ft 213kts
20-Nov-18 13:05 33.693064 -118.025170 91 4866ft 201kts
20-Nov-18 13:06 33.696274 -117.963248 82 4928ft 191kts
20-Nov-18 13:07 33.721115 -117.921240 29 5065ft 182kts
20-Nov-18 13:08 33.759885 -117.895141 31 5066ft 187kts
20-Nov-18 13:09 33.797955 -117.863042 36 5111ft 185kts
20-Nov-18 13:10 33.838204 -117.829482 31 4962ft 191kts
20-Nov-18 13:11 33.882734 -117.801543 26 5078ft 186kts
20-Nov-18 13:12 33.921257 -117.767331 67 5135ft 160kts
20-Nov-18 13:13 33.899597 -117.736733 193 4581ft 168kts
20-Nov-18 13:14 33.860314 -117.753620 199 3558ft 147kts
20-Nov-18 13:15 33.827743 -117.770393 208 3071ft 120kts
20-Nov-18 13:16 33.800484 -117.789723 205 3003ft 116kts
20-Nov-18 13:17 33.771114 -117.805807 212 2113ft 118kts
20-Nov-18 13:18 33.746589 -117.826164 215 1559ft 109kts
20-Nov-18 13:19 33.719529 -117.841033 202 895ft 108kts
20-Nov-18 13:20 33.693477 -117.857357 210 439ft 110kts
20-Nov-18 13:21 33.673426 -117.870263 204 60ft 32kts
20-Nov-18 13:22 33.672387 -117.872272 269 60ft 0kts

Navigation Log

Ident Type
Flight plan parsing failed, navigation log unavailable